Time;durP1;ratioP1;P1;durP2;ratioP2;P2;SDS_P1;SDS_P2;PMS_P1;PMS_P2;Temp;Humidity;BMP_temperature;BMP_pressure;BME280_temperature;BME280_humidity;BME280_pressure;Samples;Min_cycle;Max_cycle;Signal;HPM_P1;HPM_P2
2023/03/18 00:01:55;;;;;;;;;;;;;;;;;;5003031;28;19976;-82
2023/03/18 00:04:41;;;;;;;;;;;;;;;;;;4998742;28;19930;-82
2023/03/18 00:07:27;;;;;;;;;;;;;;;;;;5005806;28;19928;-83
2023/03/18 00:10:15;;;;;;;;;;;;;;;;;;5006408;28;19913;-83
2023/03/18 00:13:03;;;;;;;;;;;;;;;;;;5001258;28;20016;-83
2023/03/18 00:15:49;;;;;;;;;;;;;;;;;;5003468;28;20641;-82
2023/03/18 00:18:36;;;;;;;;;;;;;;;;;;5003888;28;19922;-80
2023/03/18 00:21:23;;;;;;;;;;;;;;;;;;5004546;28;19928;-84
2023/03/18 00:24:11;;;;;;;;;;;;;;;;;;5001086;28;20006;-82
2023/03/18 00:26:57;;;;;;;;;;;;;;;;;;5003833;28;19928;-80
2023/03/18 00:29:44;;;;;;;;;;;;;;;;;;5005324;28;19977;-80
2023/03/18 00:32:31;;;;;;;;;;;;;;;;;;5001956;28;19928;-80
2023/03/18 00:35:18;;;;;;;;;;;;;;;;;;5007021;28;19949;-79
2023/03/18 00:38:06;;;;;;;;;;;;;;;;;;4993677;28;19946;-79
2023/03/18 00:40:52;;;;;;;;;;;;;;;;;;5003117;28;19928;-79
2023/03/18 00:43:51;;;;;;;;;;;;;;;;;;5005851;28;19926;-79
2023/03/18 00:46:37;;;;;;;;;;;;;;;;;;5000333;28;19925;-79
2023/03/18 00:49:24;;;;;;;;;;;;;;;;;;4995656;28;19918;-79
2023/03/18 00:52:10;;;;;;;;;;;;;;;;;;5004089;28;19998;-80
2023/03/18 00:54:57;;;;;;;;;;;;;;;;;;5005907;28;19917;-80
2023/03/18 00:57:43;;;;;;;;;;;;;;;;;;5004369;28;19921;-79
2023/03/18 01:00:30;;;;;;;;;;;;;;;;;;5005352;28;19933;-80
2023/03/18 01:03:16;;;;;;;;;;;;;;;;;;5006195;28;19934;-79
2023/03/18 01:06:03;;;;;;;;;;;;;;;;;;4999062;28;19917;-81
2023/03/18 01:08:50;;;;;;;;;;;;;;;;;;5003527;28;20284;-80
2023/03/18 01:11:36;;;;;;;;;;;;;;;;;;5001699;28;19921;-79
2023/03/18 01:14:23;;;;;;;;;;;;;;;;;;5001646;28;19924;-79
2023/03/18 01:17:09;;;;;;;;;;;;;;;;;;5005497;28;20364;-80
2023/03/18 01:19:56;;;;;;;;;;;;;;;;;;5002824;28;19922;-79
2023/03/18 01:22:43;;;;;;;;;;;;;;;;;;5005552;28;19929;-79
2023/03/18 01:25:30;;;;;;;;;;;;;;;;;;5006413;28;19941;-79
2023/03/18 01:28:16;;;;;;;;;;;;;;;;;;5004533;28;19928;-79
2023/03/18 01:31:03;;;;;;;;;;;;;;;;;;5002344;28;20378;-79
2023/03/18 01:33:50;;;;;;;;;;;;;;;;;;4998266;28;19928;-79
2023/03/18 01:36:36;;;;;;;;;;;;;;;;;;5005806;28;19928;-79
2023/03/18 01:39:23;;;;;;;;;;;;;;;;;;5004515;28;20730;-80
2023/03/18 01:42:10;;;;;;;;;;;;;;;;;;5005570;28;19933;-79
2023/03/18 01:44:57;;;;;;;;;;;;;;;;;;5005027;28;19918;-80
2023/03/18 01:47:43;;;;;;;;;;;;;;;;;;5004519;28;20242;-79
2023/03/18 01:50:30;;;;;;;;;;;;;;;;;;5006016;28;19913;-80
2023/03/18 01:53:17;;;;;;;;;;;;;;;;;;5001218;28;19924;-80
2023/03/18 01:56:03;;;;;;;;;;;;;;;;;;4995249;28;19917;-80
2023/03/18 01:58:50;;;;;;;;;;;;;;;;;;5001410;28;19921;-81
2023/03/18 02:01:36;;;;;;;;;;;;;;;;;;5004207;28;19922;-79
2023/03/18 02:04:23;;;;;;;;;;;;;;;;;;5005838;28;19936;-80
2023/03/18 02:07:10;;;;;;;;;;;;;;;;;;4994463;28;20684;-80
2023/03/18 02:09:56;;;;;;;;;;;;;;;;;;5000692;28;19918;-80
2023/03/18 02:12:43;;;;;;;;;;;;;;;;;;5001371;28;19921;-81
2023/03/18 02:15:31;;;;;;;;;;;;;;;;;;4999952;28;19913;-81
2023/03/18 02:18:18;;;;;;;;;;;;;;;;;;5002708;28;19988;-80
2023/03/18 02:21:06;;;;;;;;;;;;;;;;;;5003714;28;19929;-80
2023/03/18 02:23:52;;;;;;;;;;;;;;;;;;4994446;28;21093;-80
2023/03/18 02:26:39;;;;;;;;;;;;;;;;;;4995431;28;19929;-80
2023/03/18 02:29:25;;;;;;;;;;;;;;;;;;5000945;28;20732;-80
2023/03/18 02:32:12;;;;;;;;;;;;;;;;;;4998554;28;19922;-80
2023/03/18 02:34:58;;;;;;;;;;;;;;;;;;5004847;28;19961;-80
2023/03/18 02:37:45;;;;;;;;;;;;;;;;;;5015123;28;20281;-80
2023/03/18 02:40:31;;;;;;;;;;;;;;;;;;5001703;28;19924;-80
2023/03/18 02:43:18;;;;;;;;;;;;;;;;;;4997161;28;19929;-81
2023/03/18 02:46:05;;;;;;;;;;;;;;;;;;5004877;28;19932;-81
2023/03/18 02:48:52;;;;;;;;;;;;;;;;;;5002959;28;20459;-81
2023/03/18 02:51:39;;;;;;;;;;;;;;;;;;4996146;28;19928;-80
2023/03/18 02:54:25;;;;;;;;;;;;;;;;;;5004409;28;20546;-82
2023/03/18 02:57:12;;;;;;;;;;;;;;;;;;5005255;28;19917;-80
2023/03/18 02:59:58;;;;;;;;;;;;;;;;;;5003643;28;19937;-81
2023/03/18 03:02:45;;;;;;;;;;;;;;;;;;5003078;28;19929;-79
2023/03/18 03:05:31;;;;;;;;;;;;;;;;;;5003959;28;19917;-81
2023/03/18 03:08:18;;;;;;;;;;;;;;;;;;4993476;28;19920;-80
2023/03/18 03:11:04;;;;;;;;;;;;;;;;;;5003469;28;19924;-81
2023/03/18 03:13:51;;;;;;;;;;;;;;;;;;4999182;28;19918;-80
2023/03/18 03:16:37;;;;;;;;;;;;;;;;;;5003069;28;19921;-79
2023/03/18 03:19:24;;;;;;;;;;;;;;;;;;4996664;28;20276;-80
2023/03/18 03:22:11;;;;;;;;;;;;;;;;;;4999897;28;19925;-81
2023/03/18 03:24:58;;;;;;;;;;;;;;;;;;4991950;28;19918;-80
2023/03/18 03:27:44;;;;;;;;;;;;;;;;;;5005218;28;19918;-80
2023/03/18 03:30:31;;;;;;;;;;;;;;;;;;4999137;28;19918;-80
2023/03/18 03:33:17;;;;;;;;;;;;;;;;;;5004227;28;19917;-80
2023/03/18 03:36:04;;;;;;;;;;;;;;;;;;5004000;28;20388;-80
2023/03/18 03:38:50;;;;;;;;;;;;;;;;;;5005171;28;19914;-80
2023/03/18 03:41:37;;;;;;;;;;;;;;;;;;5003029;28;19921;-80
2023/03/18 03:44:23;;;;;;;;;;;;;;;;;;5005204;28;19920;-81
2023/03/18 03:47:10;;;;;;;;;;;;;;;;;;5002834;28;19928;-80
2023/03/18 03:49:56;;;;;;;;;;;;;;;;;;5003760;28;19951;-79
2023/03/18 03:52:43;;;;;;;;;;;;;;;;;;5002715;28;19921;-80
2023/03/18 03:55:29;;;;;;;;;;;;;;;;;;5001920;28;19922;-80
2023/03/18 03:58:16;;;;;;;;;;;;;;;;;;5004631;28;19917;-80
2023/03/18 04:01:05;;;;;;;;;;;;;;;;;;5004313;28;19924;-79
2023/03/18 04:03:51;;;;;;;;;;;;;;;;;;5004268;28;19926;-79
2023/03/18 04:06:38;;;;;;;;;;;;;;;;;;4997046;28;19929;-79
2023/03/18 04:09:24;;;;;;;;;;;;;;;;;;5000004;28;19920;-81
2023/03/18 04:12:11;;;;;;;;;;;;;;;;;;5000567;28;19928;-79
2023/03/18 04:14:58;;;;;;;;;;;;;;;;;;5003363;28;20400;-79
2023/03/18 04:17:44;;;;;;;;;;;;;;;;;;4999765;28;20682;-79
2023/03/18 04:20:31;;;;;;;;;;;;;;;;;;4999276;28;19918;-80
2023/03/18 04:23:18;;;;;;;;;;;;;;;;;;5003523;28;19936;-80
2023/03/18 04:26:04;;;;;;;;;;;;;;;;;;5006122;28;19914;-79
2023/03/18 04:28:51;;;;;;;;;;;;;;;;;;5006309;28;19925;-80
2023/03/18 04:31:37;;;;;;;;;;;;;;;;;;5008033;28;19925;-79
2023/03/18 04:34:24;;;;;;;;;;;;;;;;;;5000843;28;19917;-80
2023/03/18 04:37:12;;;;;;;;;;;;;;;;;;5005710;28;19932;-80
2023/03/18 04:39:59;;;;;;;;;;;;;;;;;;4997200;28;19921;-80
2023/03/18 04:42:46;;;;;;;;;;;;;;;;;;5015105;28;20259;-80
2023/03/18 04:45:33;;;;;;;;;;;;;;;;;;5007207;28;19914;-80
2023/03/18 04:48:20;;;;;;;;;;;;;;;;;;4992628;28;19932;-80
2023/03/18 04:51:08;;;;;;;;;;;;;;;;;;5013103;28;20017;-80
2023/03/18 04:53:54;;;;;;;;;;;;;;;;;;4996053;28;19922;-80
2023/03/18 04:56:40;;;;;;;;;;;;;;;;;;5005187;28;19925;-79
2023/03/18 04:59:27;;;;;;;;;;;;;;;;;;5006755;28;20391;-80
2023/03/18 05:02:14;;;;;;;;;;;;;;;;;;5000519;28;19944;-80
2023/03/18 05:05:00;;;;;;;;;;;;;;;;;;5006421;28;19932;-80
2023/03/18 05:07:47;;;;;;;;;;;;;;;;;;5005064;28;19929;-79
2023/03/18 05:10:34;;;;;;;;;;;;;;;;;;5009312;28;20536;-79
2023/03/18 05:13:20;;;;;;;;;;;;;;;;;;4994947;28;19921;-80
2023/03/18 05:16:08;;;;;;;;;;;;;;;;;;5002966;28;20699;-80
2023/03/18 05:18:55;;;;;;;;;;;;;;;;;;5004527;28;20381;-79
2023/03/18 05:21:41;;;;;;;;;;;;;;;;;;5001080;28;19922;-78
2023/03/18 05:24:28;;;;;;;;;;;;;;;;;;5004319;28;19917;-79
2023/03/18 05:27:15;;;;;;;;;;;;;;;;;;4998511;28;20387;-80
2023/03/18 05:30:01;;;;;;;;;;;;;;;;;;5014425;28;19918;-79
2023/03/18 05:32:48;;;;;;;;;;;;;;;;;;5003741;28;20728;-79
2023/03/18 05:35:35;;;;;;;;;;;;;;;;;;5005123;28;19924;-78
2023/03/18 05:38:21;;;;;;;;;;;;;;;;;;5006330;28;19925;-80
2023/03/18 05:41:08;;;;;;;;;;;;;;;;;;5004554;28;19922;-79
2023/03/18 05:43:54;;;;;;;;;;;;;;;;;;5005637;28;19925;-78
2023/03/18 05:46:41;;;;;;;;;;;;;;;;;;5005772;28;19918;-78
2023/03/18 05:49:27;;;;;;;;;;;;;;;;;;5005840;28;20489;-80
2023/03/18 05:52:16;;;;;;;;;;;;;;;;;;5007869;28;19917;-80
2023/03/18 05:55:02;;;;;;;;;;;;;;;;;;5006453;28;19925;-79
2023/03/18 05:57:49;;;;;;;;;;;;;;;;;;5004360;28;19925;-80
2023/03/18 06:00:36;;;;;;;;;;;;;;;;;;4994584;28;20408;-80
2023/03/18 06:03:23;;;;;;;;;;;;;;;;;;5006828;28;19936;-80
2023/03/18 06:06:10;;;;;;;;;;;;;;;;;;5004756;28;19921;-81
2023/03/18 06:08:57;;;;;;;;;;;;;;;;;;5004708;28;21490;-79
2023/03/18 06:11:44;;;;;;;;;;;;;;;;;;4998739;28;19918;-79
2023/03/18 06:14:30;;;;;;;;;;;;;;;;;;5011238;28;20522;-80
2023/03/18 06:17:17;;;;;;;;;;;;;;;;;;5004647;28;19921;-81
2023/03/18 06:20:03;;;;;;;;;;;;;;;;;;5014058;28;20386;-80
2023/03/18 06:22:50;;;;;;;;;;;;;;;;;;5005603;28;19934;-81
2023/03/18 06:25:37;;;;;;;;;;;;;;;;;;5001645;28;19917;-79
2023/03/18 06:28:23;;;;;;;;;;;;;;;;;;5007571;28;19924;-80
2023/03/18 06:31:10;;;;;;;;;;;;;;;;;;5004735;28;19929;-80
2023/03/18 06:33:56;;;;;;;;;;;;;;;;;;5003674;28;19918;-81
2023/03/18 06:36:43;;;;;;;;;;;;;;;;;;4995236;28;20456;-80
2023/03/18 06:39:29;;;;;;;;;;;;;;;;;;5000798;28;19920;-79
2023/03/18 06:42:16;;;;;;;;;;;;;;;;;;5003691;28;19940;-80
2023/03/18 06:45:02;;;;;;;;;;;;;;;;;;4998050;28;19917;-80
2023/03/18 06:47:49;;;;;;;;;;;;;;;;;;5002009;28;19921;-81
2023/03/18 06:50:35;;;;;;;;;;;;;;;;;;5005064;28;19918;-81
2023/03/18 06:53:22;;;;;;;;;;;;;;;;;;4999925;28;19917;-81
2023/03/18 06:56:08;;;;;;;;;;;;;;;;;;4997575;28;19924;-80
2023/03/18 06:58:55;;;;;;;;;;;;;;;;;;5001686;28;20381;-80
2023/03/18 07:01:42;;;;;;;;;;;;;;;;;;5004941;28;19936;-81
2023/03/18 07:04:29;;;;;;;;;;;;;;;;;;5003465;28;19936;-80
2023/03/18 07:07:16;;;;;;;;;;;;;;;;;;4996685;28;19921;-80
2023/03/18 07:10:02;;;;;;;;;;;;;;;;;;5004346;28;19971;-81
2023/03/18 07:12:49;;;;;;;;;;;;;;;;;;4997756;28;19921;-80
2023/03/18 07:15:37;;;;;;;;;;;;;;;;;;5000369;28;19924;-80
2023/03/18 07:18:24;;;;;;;;;;;;;;;;;;5003193;28;19921;-82
2023/03/18 07:21:10;;;;;;;;;;;;;;;;;;4997518;28;19933;-82
2023/03/18 07:23:57;;;;;;;;;;;;;;;;;;5001909;28;19928;-82
2023/03/18 07:26:44;;;;;;;;;;;;;;;;;;5003042;28;19921;-81
2023/03/18 07:29:30;;;;;;;;;;;;;;;;;;4999800;28;19925;-81
2023/03/18 07:32:18;;;;;;;;;;;;;;;;;;4998600;28;19924;-81
2023/03/18 07:35:05;;;;;;;;;;;;;;;;;;5003801;28;20018;-80
2023/03/18 07:37:51;;;;;;;;;;;;;;;;;;5002045;28;19926;-80
2023/03/18 07:40:38;;;;;;;;;;;;;;;;;;5004362;28;19917;-80
2023/03/18 07:43:24;;;;;;;;;;;;;;;;;;4993180;28;19941;-80
2023/03/18 07:46:11;;;;;;;;;;;;;;;;;;4999087;28;20365;-80
2023/03/18 07:48:57;;;;;;;;;;;;;;;;;;5002312;28;19921;-80
2023/03/18 07:51:44;;;;;;;;;;;;;;;;;;5001237;28;20352;-83
2023/03/18 07:54:30;;;;;;;;;;;;;;;;;;5003016;28;19932;-82
2023/03/18 07:57:17;;;;;;;;;;;;;;;;;;5004674;28;19925;-81
2023/03/18 08:00:04;;;;;;;;;;;;;;;;;;5001818;28;19922;-83
2023/03/18 08:02:51;;;;;;;;;;;;;;;;;;5006177;28;19936;-84
2023/03/18 08:05:38;;;;;;;;;;;;;;;;;;5004858;28;19929;-82
2023/03/18 08:08:25;;;;;;;;;;;;;;;;;;5000245;28;19948;-83
2023/03/18 08:11:11;;;;;;;;;;;;;;;;;;5004918;28;19925;-83
2023/03/18 08:13:58;;;;;;;;;;;;;;;;;;5001548;28;20277;-83
2023/03/18 08:16:44;;;;;;;;;;;;;;;;;;4999477;28;19928;-83
2023/03/18 08:19:31;;;;;;;;;;;;;;;;;;4998905;28;19926;-82
2023/03/18 08:22:18;;;;;;;;;;;;;;;;;;5004186;28;19929;-82
2023/03/18 08:25:04;;;;;;;;;;;;;;;;;;5003964;28;19922;-82
2023/03/18 08:27:51;;;;;;;;;;;;;;;;;;5000876;28;20291;-82
2023/03/18 08:30:37;;;;;;;;;;;;;;;;;;4995616;28;20396;-82
2023/03/18 08:33:24;;;;;;;;;;;;;;;;;;4992615;28;19920;-84
2023/03/18 08:36:11;;;;;;;;;;;;;;;;;;4999836;28;19922;-81
2023/03/18 08:38:57;;;;;;;;;;;;;;;;;;5005728;28;20415;-79
2023/03/18 08:41:44;;;;;;;;;;;;;;;;;;5004419;28;19925;-80
2023/03/18 08:44:30;;;;;;;;;;;;;;;;;;5004156;28;19928;-80
2023/03/18 08:47:16;;;;;;;;;;;;;;;;;;5009027;28;19922;-80
2023/03/18 08:50:04;;;;;;;;;;;;;;;;;;5003812;28;20502;-79
2023/03/18 08:52:51;;;;;;;;;;;;;;;;;;5006656;28;19948;-80
2023/03/18 08:55:38;;;;;;;;;;;;;;;;;;5005880;28;19925;-81
2023/03/18 08:58:26;;;;;;;;;;;;;;;;;;5004690;28;19928;-79
2023/03/18 09:01:12;;;;;;;;;;;;;;;;;;4999681;28;20369;-80
2023/03/18 09:03:59;;;;;;;;;;;;;;;;;;5004200;28;19930;-81
2023/03/18 09:06:47;;;;;;;;;;;;;;;;;;4999549;28;19921;-80
2023/03/18 09:09:34;;;;;;;;;;;;;;;;;;5004843;28;19921;-80
2023/03/18 09:12:21;;;;;;;;;;;;;;;;;;4993152;28;19932;-81
2023/03/18 09:15:09;;;;;;;;;;;;;;;;;;4999191;28;19925;-81
2023/03/18 09:17:55;;;;;;;;;;;;;;;;;;4999411;28;19928;-82
2023/03/18 09:20:42;;;;;;;;;;;;;;;;;;5001315;28;19948;-83
2023/03/18 09:23:28;;;;;;;;;;;;;;;;;;5004961;28;19925;-84
2023/03/18 09:26:15;;;;;;;;;;;;;;;;;;5006355;28;19927;-83
2023/03/18 09:29:01;;;;;;;;;;;;;;;;;;5003714;28;20241;-84
2023/03/18 09:31:48;;;;;;;;;;;;;;;;;;5003236;28;19922;-83
2023/03/18 09:34:35;;;;;;;;;;;;;;;;;;5012627;28;19917;-77
2023/03/18 09:37:21;;;;;;;;;;;;;;;;;;5000627;28;19928;-82
2023/03/18 09:40:09;;;;;;;;;;;;;;;;;;5003348;28;19929;-81
2023/03/18 09:42:56;;;;;;;;;;;;;;;;;;5003014;28;19952;-81
2023/03/18 09:45:43;;;;;;;;;;;;;;;;;;5002038;28;20487;-81
2023/03/18 09:48:30;;;;;;;;;;;;;;;;;;5005991;28;19917;-82
2023/03/18 09:51:17;;;;;;;;;;;;;;;;;;5004562;28;19925;-82
2023/03/18 09:54:03;;;;;;;;;;;;;;;;;;5003116;28;19922;-80
2023/03/18 09:56:50;;;;;;;;;;;;;;;;;;5002531;28;19945;-80
2023/03/18 09:59:36;;;;;;;;;;;;;;;;;;5003613;28;19927;-80
2023/03/18 10:02:22;;;;;;;;;;;;;;;;;;5003048;28;19925;-82
2023/03/18 10:05:09;;;;;;;;;;;;;;;;;;5004373;28;19929;-82
2023/03/18 10:07:56;;;;;;;;;;;;;;;;;;5001494;28;19945;-82
2023/03/18 10:10:42;;;;;;;;;;;;;;;;;;5002623;28;20377;-81
2023/03/18 10:13:29;;;;;;;;;;;;;;;;;;5003137;28;19929;-81
2023/03/18 10:16:15;;;;;;;;;;;;;;;;;;5005297;28;19918;-82
2023/03/18 10:19:02;;;;;;;;;;;;;;;;;;5003724;28;19924;-81
2023/03/18 10:21:49;;;;;;;;;;;;;;;;;;5003212;28;20270;-82
2023/03/18 10:24:36;;;;;;;;;;;;;;;;;;5001828;28;19960;-82
2023/03/18 10:27:23;;;;;;;;;;;;;;;;;;5004012;28;19932;-83
2023/03/18 10:30:10;;;;;;;;;;;;;;;;;;5001520;28;19921;-81
2023/03/18 10:32:57;;;;;;;;;;;;;;;;;;5003372;28;19918;-82
2023/03/18 10:35:43;;;;;;;;;;;;;;;;;;5004130;28;19942;-82
2023/03/18 10:38:30;;;;;;;;;;;;;;;;;;5004154;28;19922;-83
2023/03/18 10:41:16;;;;;;;;;;;;;;;;;;4998118;28;19927;-81
2023/03/18 10:44:03;;;;;;;;;;;;;;;;;;5002029;28;20252;-82
2023/03/18 10:46:50;;;;;;;;;;;;;;;;;;5000602;28;19921;-82
2023/03/18 10:49:36;;;;;;;;;;;;;;;;;;5003175;28;19928;-82
2023/03/18 10:52:23;;;;;;;;;;;;;;;;;;4997304;28;19922;-81
2023/03/18 10:55:13;;;;;;;;;;;;;;;;;;4999668;28;20495;-81
2023/03/18 10:57:59;;;;;;;;;;;;;;;;;;4997679;28;20023;-82
2023/03/18 11:00:46;;;;;;;;;;;;;;;;;;5002860;28;19924;-83
2023/03/18 11:03:32;;;;;;;;;;;;;;;;;;4998698;28;20377;-83
2023/03/18 11:06:19;;;;;;;;;;;;;;;;;;5001585;28;19921;-82
2023/03/18 11:09:07;;;;;;;;;;;;;;;;;;5001960;28;19925;-82
2023/03/18 11:11:53;;;;;;;;;;;;;;;;;;4999554;28;19924;-82
2023/03/18 11:14:41;;;;;;;;;;;;;;;;;;5001571;28;19921;-81
2023/03/18 11:17:28;;;;;;;;;;;;;;;;;;5001752;28;19921;-82
2023/03/18 11:20:15;;;;;;;;;;;;;;;;;;5002392;28;19928;-82
2023/03/18 11:23:10;;;;;;;;;;;;;;;;;;5002920;28;20601;-81
2023/03/18 11:25:57;;;;;;;;;;;;;;;;;;5004147;28;19917;-80
2023/03/18 11:28:43;;;;;;;;;;;;;;;;;;5004141;28;19929;-81
2023/03/18 11:31:30;;;;;;;;;;;;;;;;;;5006617;28;20039;-81
2023/03/18 11:34:18;;;;;;;;;;;;;;;;;;5001407;28;19918;-82
2023/03/18 11:37:05;;;;;;;;;;;;;;;;;;5005789;28;19936;-83
2023/03/18 11:39:51;;;;;;;;;;;;;;;;;;5006939;28;19937;-81
2023/03/18 11:42:39;;;;;;;;;;;;;;;;;;5005290;28;19941;-84
2023/03/18 11:45:26;;;;;;;;;;;;;;;;;;5008047;28;20288;-83
2023/03/18 11:48:13;;;;;;;;;;;;;;;;;;5006202;28;19928;-82
2023/03/18 11:50:59;;;;;;;;;;;;;;;;;;5008981;28;19920;-80
2023/03/18 11:53:45;;;;;;;;;;;;;;;;;;5003404;28;19929;-81
2023/03/18 11:56:32;;;;;;;;;;;;;;;;;;5002357;28;19924;-82
2023/03/18 11:59:18;;;;;;;;;;;;;;;;;;5006632;28;20428;-82
2023/03/18 12:02:05;;;;;;;;;;;;;;;;;;5006884;28;19917;-80
2023/03/18 12:04:52;;;;;;;;;;;;;;;;;;5006567;28;20360;-82
2023/03/18 12:07:39;;;;;;;;;;;;;;;;;;5005383;28;19925;-83
2023/03/18 12:10:25;;;;;;;;;;;;;;;;;;5006021;28;19918;-84
2023/03/18 12:13:12;;;;;;;;;;;;;;;;;;5007565;28;19920;-81
2023/03/18 12:15:59;;;;;;;;;;;;;;;;;;5007303;28;19914;-81
2023/03/18 12:18:46;;;;;;;;;;;;;;;;;;5004452;28;20383;-83
2023/03/18 12:21:33;;;;;;;;;;;;;;;;;;5004765;28;20032;-81
2023/03/18 12:24:19;;;;;;;;;;;;;;;;;;5006149;28;19929;-81
2023/03/18 12:27:06;;;;;;;;;;;;;;;;;;5004630;28;19921;-82
2023/03/18 12:29:52;;;;;;;;;;;;;;;;;;5005422;28;19925;-82
2023/03/18 12:32:39;;;;;;;;;;;;;;;;;;5004664;28;19924;-79
2023/03/18 12:35:25;;;;;;;;;;;;;;;;;;5005414;28;19931;-82
2023/03/18 12:38:12;;;;;;;;;;;;;;;;;;5002492;28;19928;-83
2023/03/18 12:40:59;;;;;;;;;;;;;;;;;;5004827;28;19917;-83
2023/03/18 12:43:45;;;;;;;;;;;;;;;;;;5001739;28;19936;-83
2023/03/18 12:46:32;;;;;;;;;;;;;;;;;;5002495;28;19922;-83
2023/03/18 12:49:18;;;;;;;;;;;;;;;;;;5004607;28;19917;-80
2023/03/18 12:52:05;;;;;;;;;;;;;;;;;;5005783;28;19932;-81
2023/03/18 12:54:52;;;;;;;;;;;;;;;;;;5003985;28;19925;-87
2023/03/18 12:57:39;;;;;;;;;;;;;;;;;;4999351;28;19940;-87
2023/03/18 13:00:26;;;;;;;;;;;;;;;;;;5000964;28;19922;-87
2023/03/18 13:03:13;;;;;;;;;;;;;;;;;;5005834;28;20389;-86
2023/03/18 13:05:59;;;;;;;;;;;;;;;;;;5001631;28;19918;-87
2023/03/18 13:08:46;;;;;;;;;;;;;;;;;;5005159;28;20308;-87
2023/03/18 13:11:32;;;;;;;;;;;;;;;;;;5006662;28;19917;-87
2023/03/18 13:14:20;;;;;;;;;;;;;;;;;;4994016;28;20586;-87
2023/03/18 13:17:07;;;;;;;;;;;;;;;;;;5005755;28;19922;-86
2023/03/18 13:19:53;;;;;;;;;;;;;;;;;;4996873;28;19917;-87
2023/03/18 13:22:40;;;;;;;;;;;;;;;;;;5003595;28;20423;-87
2023/03/18 13:25:27;;;;;;;;;;;;;;;;;;5005785;28;19921;-87
2023/03/18 13:28:14;;;;;;;;;;;;;;;;;;5006716;28;19932;-87
2023/03/18 13:31:00;;;;;;;;;;;;;;;;;;5003468;28;19922;-87
2023/03/18 13:33:47;;;;;;;;;;;;;;;;;;5004395;28;19928;-86
2023/03/18 13:36:34;;;;;;;;;;;;;;;;;;5007010;28;19922;-86
2023/03/18 13:39:20;;;;;;;;;;;;;;;;;;5007520;28;19923;-86
2023/03/18 13:42:07;;;;;;;;;;;;;;;;;;5005469;28;19928;-85
2023/03/18 13:44:54;;;;;;;;;;;;;;;;;;5004512;28;19928;-87
2023/03/18 13:47:41;;;;;;;;;;;;;;;;;;5000071;28;19921;-86
2023/03/18 13:50:27;;;;;;;;;;;;;;;;;;5010423;28;19925;-87
2023/03/18 13:53:14;;;;;;;;;;;;;;;;;;5014855;28;19921;-86
2023/03/18 13:56:00;;;;;;;;;;;;;;;;;;5000573;28;20388;-85
2023/03/18 13:58:47;;;;;;;;;;;;;;;;;;5006929;28;19928;-87
2023/03/18 14:01:35;;;;;;;;;;;;;;;;;;5006117;28;19925;-87
2023/03/18 14:04:21;;;;;;;;;;;;;;;;;;5006643;28;20417;-87
2023/03/18 14:07:08;;;;;;;;;;;;;;;;;;5014748;28;19921;-86
2023/03/18 14:09:54;;;;;;;;;;;;;;;;;;5003326;28;19932;-86
2023/03/18 14:12:41;;;;;;;;;;;;;;;;;;4997593;28;19922;-87
2023/03/18 14:15:27;;;;;;;;;;;;;;;;;;5012138;28;19913;-86
2023/03/18 14:18:15;;;;;;;;;;;;;;;;;;5014603;28;20296;-86
2023/03/18 14:21:03;;;;;;;;;;;;;;;;;;5010718;28;19927;-87
2023/03/18 14:23:50;;;;;;;;;;;;;;;;;;5006143;28;19925;-86
2023/03/18 14:26:36;;;;;;;;;;;;;;;;;;5003903;28;20411;-87
2023/03/18 14:29:23;;;;;;;;;;;;;;;;;;5004100;28;19928;-87
2023/03/18 14:32:10;;;;;;;;;;;;;;;;;;5004877;28;20376;-87
2023/03/18 14:34:57;;;;;;;;;;;;;;;;;;5003950;28;20389;-88
2023/03/18 14:37:44;;;;;;;;;;;;;;;;;;4997283;28;19922;-86
2023/03/18 14:40:31;;;;;;;;;;;;;;;;;;5002076;28;19925;-86
2023/03/18 14:43:17;;;;;;;;;;;;;;;;;;5006107;28;19925;-86
2023/03/18 14:46:04;;;;;;;;;;;;;;;;;;5009340;28;19921;-85
2023/03/18 14:48:51;;;;;;;;;;;;;;;;;;5005068;28;19937;-86
2023/03/18 14:51:37;;;;;;;;;;;;;;;;;;5005247;28;19933;-87
2023/03/18 14:54:24;;;;;;;;;;;;;;;;;;5004520;28;19929;-87
2023/03/18 14:57:10;;;;;;;;;;;;;;;;;;4998030;28;19914;-86
2023/03/18 14:59:57;;;;;;;;;;;;;;;;;;5005257;28;19917;-86
2023/03/18 15:02:43;;;;;;;;;;;;;;;;;;5004154;28;19932;-86
2023/03/18 15:05:30;;;;;;;;;;;;;;;;;;5005830;28;19926;-88
2023/03/18 15:08:17;;;;;;;;;;;;;;;;;;5004547;28;19913;-86
2023/03/18 15:11:06;;;;;;;;;;;;;;;;;;5004821;28;19922;-86
2023/03/18 15:13:52;;;;;;;;;;;;;;;;;;5005515;28;19929;-85
2023/03/18 15:16:39;;;;;;;;;;;;;;;;;;5004396;28;19921;-87
2023/03/18 15:19:26;;;;;;;;;;;;;;;;;;4998809;28;19925;-86
2023/03/18 15:22:12;;;;;;;;;;;;;;;;;;5004008;28;19933;-86
2023/03/18 15:24:59;;;;;;;;;;;;;;;;;;5001712;28;19921;-86
2023/03/18 15:27:47;;;;;;;;;;;;;;;;;;5002111;28;19921;-87
2023/03/18 15:30:33;;;;;;;;;;;;;;;;;;5005329;28;19965;-86
2023/03/18 15:33:20;;;;;;;;;;;;;;;;;;5003345;28;19921;-87
2023/03/18 15:36:07;;;;;;;;;;;;;;;;;;4994161;28;20292;-87
2023/03/18 15:38:53;;;;;;;;;;;;;;;;;;4996770;28;19932;-85
2023/03/18 15:41:40;;;;;;;;;;;;;;;;;;5006222;28;19928;-86
2023/03/18 15:44:27;;;;;;;;;;;;;;;;;;5004043;28;19925;-86
2023/03/18 15:47:14;;;;;;;;;;;;;;;;;;5003268;28;19926;-87
2023/03/18 15:50:00;;;;;;;;;;;;;;;;;;5000628;28;20648;-87
2023/03/18 15:52:47;;;;;;;;;;;;;;;;;;5004038;28;20633;-87
2023/03/18 15:55:33;;;;;;;;;;;;;;;;;;4998420;28;19926;-86
2023/03/18 15:58:20;;;;;;;;;;;;;;;;;;5001714;28;20301;-87
2023/03/18 16:01:06;;;;;;;;;;;;;;;;;;5004675;28;19928;-87
2023/03/18 16:03:53;;;;;;;;;;;;;;;;;;5002991;28;19956;-87
2023/03/18 16:06:40;;;;;;;;;;;;;;;;;;4999387;28;19918;-87
2023/03/18 16:09:26;;;;;;;;;;;;;;;;;;4997921;28;20248;-86
2023/03/18 16:12:13;;;;;;;;;;;;;;;;;;5004729;28;19926;-87
2023/03/18 16:14:59;;;;;;;;;;;;;;;;;;5002648;28;20513;-87
2023/03/18 16:17:47;;;;;;;;;;;;;;;;;;4999694;28;19917;-87
2023/03/18 16:20:34;;;;;;;;;;;;;;;;;;5008449;28;19920;-88
2023/03/18 16:23:20;;;;;;;;;;;;;;;;;;5007182;28;20627;-86
2023/03/18 16:26:07;;;;;;;;;;;;;;;;;;5002298;28;19917;-88
2023/03/18 16:28:55;;;;;;;;;;;;;;;;;;5004158;28;19918;-86
2023/03/18 16:31:41;;;;;;;;;;;;;;;;;;4999550;28;19921;-87
2023/03/18 16:34:28;;;;;;;;;;;;;;;;;;4994895;28;20377;-87
2023/03/18 16:37:14;;;;;;;;;;;;;;;;;;5007679;28;19929;-87
2023/03/18 16:40:01;;;;;;;;;;;;;;;;;;5007550;28;20444;-87
2023/03/18 16:42:47;;;;;;;;;;;;;;;;;;5006121;28;20024;-87
2023/03/18 16:45:34;;;;;;;;;;;;;;;;;;5009868;28;19921;-87
2023/03/18 16:48:21;;;;;;;;;;;;;;;;;;5006650;28;20345;-88
2023/03/18 16:51:07;;;;;;;;;;;;;;;;;;4991531;28;19918;-87
2023/03/18 16:53:54;;;;;;;;;;;;;;;;;;4997264;28;19921;-87
2023/03/18 16:56:40;;;;;;;;;;;;;;;;;;5005474;28;19917;-86
2023/03/18 16:59:26;;;;;;;;;;;;;;;;;;5006379;28;19944;-89
2023/03/18 17:02:14;;;;;;;;;;;;;;;;;;5009732;28;19932;-89
2023/03/18 17:05:00;;;;;;;;;;;;;;;;;;5006169;28;19932;-89
2023/03/18 17:07:47;;;;;;;;;;;;;;;;;;5020394;28;19914;-86
2023/03/18 17:10:33;;;;;;;;;;;;;;;;;;5016417;28;19926;-87
2023/03/18 17:13:21;;;;;;;;;;;;;;;;;;5011752;28;19918;-88
2023/03/18 17:16:08;;;;;;;;;;;;;;;;;;5006058;28;19948;-89
2023/03/18 17:18:54;;;;;;;;;;;;;;;;;;5009738;28;19937;-89
2023/03/18 17:21:41;;;;;;;;;;;;;;;;;;5007022;28;20353;-88
2023/03/18 17:24:27;;;;;;;;;;;;;;;;;;5011675;28;19921;-88
2023/03/18 17:27:14;;;;;;;;;;;;;;;;;;5013363;28;19921;-87
2023/03/18 17:30:00;;;;;;;;;;;;;;;;;;5007808;28;19926;-86
2023/03/18 17:32:47;;;;;;;;;;;;;;;;;;5012810;28;19920;-88
2023/03/18 17:35:33;;;;;;;;;;;;;;;;;;5007902;28;19928;-87
2023/03/18 17:38:20;;;;;;;;;;;;;;;;;;5007148;28;19917;-86
2023/03/18 17:41:06;;;;;;;;;;;;;;;;;;5011822;28;19921;-86
2023/03/18 17:43:53;;;;;;;;;;;;;;;;;;5006871;28;20387;-86
2023/03/18 17:46:39;;;;;;;;;;;;;;;;;;5005144;28;20468;-85
2023/03/18 17:49:26;;;;;;;;;;;;;;;;;;5005147;28;19925;-86
2023/03/18 17:52:12;;;;;;;;;;;;;;;;;;4996833;28;19920;-86
2023/03/18 17:54:59;;;;;;;;;;;;;;;;;;5003935;28;19932;-86
2023/03/18 17:57:46;;;;;;;;;;;;;;;;;;5004631;28;19924;-86
2023/03/18 18:00:33;;;;;;;;;;;;;;;;;;5016302;28;19924;-86
2023/03/18 18:03:19;;;;;;;;;;;;;;;;;;5010355;28;19925;-87
2023/03/18 18:06:06;;;;;;;;;;;;;;;;;;5008385;28;19918;-86
2023/03/18 18:08:54;;;;;;;;;;;;;;;;;;5010576;28;19928;-86
2023/03/18 18:11:44;;;;;;;;;;;;;;;;;;5008824;28;19929;-88
2023/03/18 18:14:31;;;;;;;;;;;;;;;;;;5008856;28;20049;-84
2023/03/18 18:17:18;;;;;;;;;;;;;;;;;;5006015;28;19928;-87
2023/03/18 18:20:04;;;;;;;;;;;;;;;;;;5001245;28;19940;-86
2023/03/18 18:22:52;;;;;;;;;;;;;;;;;;5006000;28;19929;-85
2023/03/18 18:25:39;;;;;;;;;;;;;;;;;;5003845;28;19918;-85
2023/03/18 18:28:26;;;;;;;;;;;;;;;;;;5006207;28;20692;-87
2023/03/18 18:31:13;;;;;;;;;;;;;;;;;;5002994;28;19918;-86
2023/03/18 18:34:00;;;;;;;;;;;;;;;;;;5004089;28;19928;-85
2023/03/18 18:36:46;;;;;;;;;;;;;;;;;;5005107;28;19928;-86
2023/03/18 18:39:33;;;;;;;;;;;;;;;;;;5005551;28;20400;-87
2023/03/18 18:42:19;;;;;;;;;;;;;;;;;;5004384;28;19929;-85
2023/03/18 18:45:07;;;;;;;;;;;;;;;;;;5002639;28;19936;-85
2023/03/18 18:47:53;;;;;;;;;;;;;;;;;;5004622;28;19929;-86
2023/03/18 18:50:40;;;;;;;;;;;;;;;;;;5011973;28;20376;-86
2023/03/18 18:53:26;;;;;;;;;;;;;;;;;;5006799;28;20352;-85
2023/03/18 18:56:13;;;;;;;;;;;;;;;;;;5011987;28;19929;-89
2023/03/18 18:58:59;;;;;;;;;;;;;;;;;;5007854;28;20392;-88